createdAt,value
2018-01-28T00:00:13.718Z,1020.35
2018-01-28T00:02:15.122Z,1020.39
2018-01-28T00:04:16.534Z,1020.40
2018-01-28T00:06:17.934Z,1020.39
2018-01-28T00:08:19.338Z,1020.56
2018-01-28T00:10:20.775Z,1020.45
2018-01-28T00:12:22.173Z,1020.40
2018-01-28T00:14:23.578Z,1020.30
2018-01-28T00:16:24.985Z,1020.27
2018-01-28T00:18:26.421Z,1020.24
2018-01-28T00:20:27.836Z,1020.15
2018-01-28T00:22:29.242Z,1020.12
2018-01-28T00:24:30.652Z,1020.16
2018-01-28T00:26:32.058Z,1020.24
2018-01-28T00:28:33.466Z,1020.11
2018-01-28T00:30:34.905Z,1020.05
2018-01-28T00:32:36.314Z,1020.04
2018-01-28T00:34:37.725Z,1019.99
2018-01-28T00:36:39.133Z,1020.02
2018-01-28T00:38:40.540Z,1019.97
2018-01-28T00:40:41.946Z,1020.04
2018-01-28T00:42:43.377Z,1020.06
2018-01-28T00:44:44.778Z,1020.20
2018-01-28T00:46:46.227Z,1020.15
2018-01-28T00:48:47.675Z,1020.24
2018-01-28T00:50:49.094Z,1020.19
2018-01-28T00:52:50.502Z,1020.19
2018-01-28T00:54:51.908Z,1020.16
2018-01-28T00:56:53.322Z,1020.08
2018-01-28T00:58:54.730Z,1020.08
2018-01-28T01:00:56.140Z,1020.16
2018-01-28T01:02:57.594Z,1020.09
2018-01-28T01:04:59.012Z,1020.15
2018-01-28T01:07:00.455Z,1020.23
2018-01-28T01:09:01.886Z,1020.24
2018-01-28T01:11:03.292Z,1020.10
2018-01-28T01:13:04.701Z,1020.19
2018-01-28T01:15:06.107Z,1020.19
2018-01-28T01:17:07.514Z,1020.25
2018-01-28T01:19:08.961Z,1020.15
2018-01-28T01:21:10.375Z,1020.16
2018-01-28T01:23:11.817Z,1020.10
2018-01-28T01:25:13.280Z,1020.07
2018-01-28T01:27:14.679Z,1020.01
2018-01-28T01:29:16.086Z,1020.09
2018-01-28T01:31:17.522Z,1020.20
2018-01-28T01:33:18.942Z,1020.14
2018-01-28T01:35:20.345Z,1020.29
2018-01-28T01:37:21.757Z,1020.26
2018-01-28T01:39:23.164Z,1020.12
2018-01-28T01:41:24.573Z,1020.18
2018-01-28T01:43:25.979Z,1020.10
2018-01-28T01:45:27.382Z,1020.10
2018-01-28T01:47:28.791Z,1020.03
2018-01-28T01:49:30.196Z,1019.88
2018-01-28T01:51:31.608Z,1019.95
2018-01-28T01:53:33.083Z,1020.00
2018-01-28T01:55:34.449Z,1020.02
2018-01-28T01:57:35.860Z,1020.14
2018-01-28T01:59:37.278Z,1020.09
2018-01-28T02:01:38.676Z,1020.22
2018-01-28T02:03:40.082Z,1020.21
2018-01-28T02:05:41.492Z,1020.22
2018-01-28T02:07:42.899Z,1020.21
2018-01-28T02:09:44.305Z,1020.18
2018-01-28T02:11:45.712Z,1020.15
2018-01-28T02:13:47.122Z,1020.12
2018-01-28T02:15:48.531Z,1020.19
2018-01-28T02:17:49.940Z,1020.17
2018-01-28T02:19:51.351Z,1020.21
2018-01-28T02:21:52.758Z,1020.10
2018-01-28T02:23:54.160Z,1020.15
2018-01-28T02:25:55.578Z,1020.16
2018-01-28T02:27:56.976Z,1020.27
2018-01-28T02:29:58.381Z,1020.28
2018-01-28T02:31:59.799Z,1020.14
2018-01-28T02:34:01.198Z,1020.24
2018-01-28T02:36:02.606Z,1020.34
2018-01-28T02:38:04.013Z,1020.29
2018-01-28T02:40:05.419Z,1020.36
2018-01-28T02:42:06.828Z,1020.38
2018-01-28T02:44:08.227Z,1020.42
2018-01-28T02:46:09.643Z,1020.44
2018-01-28T02:48:11.044Z,1020.57
2018-01-28T02:50:12.454Z,1020.50
2018-01-28T02:52:13.862Z,1020.45
2018-01-28T02:54:15.270Z,1020.36
2018-01-28T02:56:16.733Z,1020.41
2018-01-28T02:58:18.147Z,1020.40
2018-01-28T03:00:19.559Z,1020.44
2018-01-28T03:02:20.974Z,1020.40
2018-01-28T03:04:22.474Z,1020.44
2018-01-28T03:06:23.868Z,1020.47
2018-01-28T03:08:25.290Z,1020.47
2018-01-28T03:10:26.696Z,1020.49
2018-01-28T03:12:28.100Z,1020.61
2018-01-28T03:14:29.505Z,1020.55
2018-01-28T03:16:30.916Z,1020.58
2018-01-28T03:18:32.323Z,1020.49
2018-01-28T03:20:33.736Z,1020.38
2018-01-28T03:22:35.139Z,1020.51
2018-01-28T03:24:36.581Z,1020.34
2018-01-28T03:26:37.991Z,1020.26
2018-01-28T03:28:39.443Z,1020.36
2018-01-28T03:30:40.856Z,1020.51
2018-01-28T03:32:42.257Z,1020.61
2018-01-28T03:34:43.746Z,1020.68
2018-01-28T03:36:45.175Z,1020.73
2018-01-28T03:38:46.684Z,1020.63
2018-01-28T03:40:48.097Z,1020.57
2018-01-28T03:42:49.502Z,1020.59
2018-01-28T03:44:50.918Z,1020.57
2018-01-28T03:46:52.336Z,1020.56
2018-01-28T03:48:53.753Z,1020.51
2018-01-28T03:50:55.165Z,1020.46
2018-01-28T03:52:56.569Z,1020.54
2018-01-28T03:54:57.976Z,1020.58
2018-01-28T03:56:59.401Z,1020.58
2018-01-28T03:59:00.809Z,1020.59
2018-01-28T04:01:02.220Z,1020.56
2018-01-28T04:03:03.627Z,1020.66
2018-01-28T04:05:05.039Z,1020.64
2018-01-28T04:07:06.450Z,1020.74
2018-01-28T04:09:07.860Z,1020.84
2018-01-28T04:11:09.267Z,1020.93
2018-01-28T04:13:10.676Z,1020.97
2018-01-28T04:15:12.084Z,1021.06
2018-01-28T04:17:13.495Z,1021.06
2018-01-28T04:19:14.902Z,1021.02
2018-01-28T04:21:16.316Z,1020.98
2018-01-28T04:23:17.718Z,1020.91
2018-01-28T04:25:19.124Z,1020.81
2018-01-28T04:27:20.537Z,1020.89
2018-01-28T04:29:21.945Z,1020.96
2018-01-28T04:31:23.347Z,1020.91
2018-01-28T04:33:24.764Z,1020.85
2018-01-28T04:35:26.209Z,1020.92
2018-01-28T04:37:27.623Z,1020.96
2018-01-28T04:39:29.034Z,1020.91
2018-01-28T04:41:30.442Z,1020.97
2018-01-28T04:43:31.850Z,1021.04
2018-01-28T04:45:33.254Z,1021.16
2018-01-28T04:47:34.667Z,1021.09
2018-01-28T04:49:36.074Z,1021.09
2018-01-28T04:51:37.484Z,1021.14
2018-01-28T04:53:38.890Z,1021.07
2018-01-28T04:55:40.301Z,1021.13
2018-01-28T04:57:41.714Z,1021.09
2018-01-28T04:59:43.123Z,1021.19
2018-01-28T05:01:44.532Z,1021.21
2018-01-28T05:03:45.950Z,1021.20
2018-01-28T05:05:47.353Z,1021.22
2018-01-28T05:07:48.787Z,1021.21
2018-01-28T05:09:50.185Z,1021.13
2018-01-28T05:11:51.595Z,1021.20
2018-01-28T05:13:53.118Z,1021.18
2018-01-28T05:15:54.542Z,1021.06
2018-01-28T05:17:55.950Z,1021.09
2018-01-28T05:19:57.360Z,1021.16
2018-01-28T05:21:58.826Z,1021.09
2018-01-28T05:24:00.241Z,1021.01
2018-01-28T05:26:01.810Z,1020.81
2018-01-28T05:28:03.227Z,1020.87
2018-01-28T05:30:04.720Z,1020.88
2018-01-28T05:32:06.277Z,1021.07
2018-01-28T05:34:07.751Z,1021.21
2018-01-28T05:36:09.194Z,1021.24
2018-01-28T05:38:10.604Z,1021.31
2018-01-28T05:40:12.012Z,1021.39
2018-01-28T05:42:13.422Z,1021.46
2018-01-28T05:44:14.830Z,1021.58
2018-01-28T05:46:16.238Z,1021.57
2018-01-28T05:48:17.644Z,1021.55
2018-01-28T05:50:19.050Z,1021.56
2018-01-28T05:52:20.465Z,1021.61
2018-01-28T05:54:21.876Z,1021.60
2018-01-28T05:56:23.279Z,1021.68
2018-01-28T05:58:24.687Z,1021.71
2018-01-28T06:00:26.100Z,1021.81
2018-01-28T06:02:27.509Z,1021.80
2018-01-28T06:04:28.998Z,1021.75
2018-01-28T06:06:30.399Z,1021.76
2018-01-28T06:08:31.807Z,1021.77
2018-01-28T06:10:33.223Z,1021.74
2018-01-28T06:12:34.625Z,1021.79
